sensor_id;sensor_type;location;lat;lon;timestamp;temperature;humidity
37204;DHT22;23098;48.054;10.636;2023-04-09T06:29:08;5.30;99.90
37204;DHT22;23098;48.054;10.636;2023-04-09T06:31:34;5.60;99.90
37204;DHT22;23098;48.054;10.636;2023-04-09T06:34:00;5.80;99.90
37204;DHT22;23098;48.054;10.636;2023-04-09T06:36:25;6.20;99.90
37204;DHT22;23098;48.054;10.636;2023-04-09T06:38:52;6.50;99.90
37204;DHT22;23098;48.054;10.636;2023-04-09T06:41:22;6.40;99.90
37204;DHT22;23098;48.054;10.636;2023-04-09T06:43:48;6.50;99.90
37204;DHT22;23098;48.054;10.636;2023-04-09T06:51:24;5.30;99.90
37204;DHT22;23098;48.054;10.636;2023-04-09T06:53:51;5.30;99.90
37204;DHT22;23098;48.054;10.636;2023-04-09T06:56:16;5.30;99.90
37204;DHT22;23098;48.054;10.636;2023-04-09T06:58:42;5.50;99.90
37204;DHT22;23098;48.054;10.636;2023-04-09T07:01:08;5.50;99.90
37204;DHT22;23098;48.054;10.636;2023-04-09T07:03:33;5.80;99.90
37204;DHT22;23098;48.054;10.636;2023-04-09T07:05:59;5.70;99.90
37204;DHT22;23098;48.054;10.636;2023-04-09T07:08:25;5.90;99.90
37204;DHT22;23098;48.054;10.636;2023-04-09T07:10:50;6.10;99.90
37204;DHT22;23098;48.054;10.636;2023-04-09T07:13:16;6.30;99.90
37204;DHT22;23098;48.054;10.636;2023-04-09T07:15:41;6.00;99.90
37204;DHT22;23098;48.054;10.636;2023-04-09T07:18:07;6.00;99.90
37204;DHT22;23098;48.054;10.636;2023-04-09T07:20:32;6.00;99.90
37204;DHT22;23098;48.054;10.636;2023-04-09T07:22:59;6.10;99.90
37204;DHT22;23098;48.054;10.636;2023-04-09T07:25:24;6.10;99.90
37204;DHT22;23098;48.054;10.636;2023-04-09T07:27:50;6.50;99.90
37204;DHT22;23098;48.054;10.636;2023-04-09T07:30:16;6.30;99.90
37204;DHT22;23098;48.054;10.636;2023-04-09T07:32:41;6.20;99.90
37204;DHT22;23098;48.054;10.636;2023-04-09T07:35:08;6.10;99.90
37204;DHT22;23098;48.054;10.636;2023-04-09T07:37:36;6.10;99.90
37204;DHT22;23098;48.054;10.636;2023-04-09T07:40:02;6.10;99.90
37204;DHT22;23098;48.054;10.636;2023-04-09T07:42:28;6.00;99.90
37204;DHT22;23098;48.054;10.636;2023-04-09T07:44:54;6.20;99.90
37204;DHT22;23098;48.054;10.636;2023-04-09T07:47:21;6.30;99.90
37204;DHT22;23098;48.054;10.636;2023-04-09T07:49:48;6.40;99.90
37204;DHT22;23098;48.054;10.636;2023-04-09T07:52:13;6.70;99.90
37204;DHT22;23098;48.054;10.636;2023-04-09T07:54:39;6.60;99.90
37204;DHT22;23098;48.054;10.636;2023-04-09T07:57:05;6.30;99.90
37204;DHT22;23098;48.054;10.636;2023-04-09T07:59:31;6.40;99.90
37204;DHT22;23098;48.054;10.636;2023-04-09T08:01:57;6.70;99.90
37204;DHT22;23098;48.054;10.636;2023-04-09T08:04:23;6.80;99.90
37204;DHT22;23098;48.054;10.636;2023-04-09T08:06:49;6.80;99.90
37204;DHT22;23098;48.054;10.636;2023-04-09T08:09:16;7.10;99.90
37204;DHT22;23098;48.054;10.636;2023-04-09T08:11:42;7.20;99.90
37204;DHT22;23098;48.054;10.636;2023-04-09T08:14:12;7.10;99.90
37204;DHT22;23098;48.054;10.636;2023-04-09T08:16:43;7.40;99.90
37204;DHT22;23098;48.054;10.636;2023-04-09T08:19:09;7.90;99.90
37204;DHT22;23098;48.054;10.636;2023-04-09T08:21:36;7.80;99.90
37204;DHT22;23098;48.054;10.636;2023-04-09T08:24:03;7.10;99.90
37204;DHT22;23098;48.054;10.636;2023-04-09T08:26:29;7.00;99.90
37204;DHT22;23098;48.054;10.636;2023-04-09T08:29:00;7.10;99.90
37204;DHT22;23098;48.054;10.636;2023-04-09T08:31:27;7.50;99.90
37204;DHT22;23098;48.054;10.636;2023-04-09T08:33:54;7.80;99.90
37204;DHT22;23098;48.054;10.636;2023-04-09T08:36:20;8.30;99.90
37204;DHT22;23098;48.054;10.636;2023-04-09T08:38:46;7.80;99.90
37204;DHT22;23098;48.054;10.636;2023-04-09T08:41:19;8.40;99.90
37204;DHT22;23098;48.054;10.636;2023-04-09T08:43:48;8.40;99.90
37204;DHT22;23098;48.054;10.636;2023-04-09T08:46:14;8.50;99.90
37204;DHT22;23098;48.054;10.636;2023-04-09T08:48:44;8.00;99.90
37204;DHT22;23098;48.054;10.636;2023-04-09T08:51:16;7.60;99.90
37204;DHT22;23098;48.054;10.636;2023-04-09T08:53:45;7.70;99.90
37204;DHT22;23098;48.054;10.636;2023-04-09T08:56:12;7.60;99.90
37204;DHT22;23098;48.054;10.636;2023-04-09T08:58:41;7.50;99.90
37204;DHT22;23098;48.054;10.636;2023-04-09T09:01:21;7.60;99.90
37204;DHT22;23098;48.054;10.636;2023-04-09T09:04:04;8.00;99.90
37204;DHT22;23098;48.054;10.636;2023-04-09T09:06:38;7.60;99.90
37204;DHT22;23098;48.054;10.636;2023-04-09T09:09:10;7.80;99.90
37204;DHT22;23098;48.054;10.636;2023-04-09T09:11:41;7.80;99.90
37204;DHT22;23098;48.054;10.636;2023-04-09T09:14:13;7.90;99.90
37204;DHT22;23098;48.054;10.636;2023-04-09T09:16:41;7.90;99.90
37204;DHT22;23098;48.054;10.636;2023-04-09T09:19:32;8.00;99.90
37204;DHT22;23098;48.054;10.636;2023-04-09T09:22:04;7.70;99.90
37204;DHT22;23098;48.054;10.636;2023-04-09T09:24:31;8.10;99.90
37204;DHT22;23098;48.054;10.636;2023-04-09T09:26:58;8.30;99.90
37204;DHT22;23098;48.054;10.636;2023-04-09T09:29:25;8.80;99.90
37204;DHT22;23098;48.054;10.636;2023-04-09T09:31:54;9.30;99.90
37204;DHT22;23098;48.054;10.636;2023-04-09T09:34:22;9.40;99.90
37204;DHT22;23098;48.054;10.636;2023-04-09T09:36:48;9.80;98.90
37204;DHT22;23098;48.054;10.636;2023-04-09T09:39:14;9.60;97.70
37204;DHT22;23098;48.054;10.636;2023-04-09T09:41:42;9.70;98.40
37204;DHT22;23098;48.054;10.636;2023-04-09T09:44:09;9.60;98.40
37204;DHT22;23098;48.054;10.636;2023-04-09T09:46:36;10.00;98.90
37204;DHT22;23098;48.054;10.636;2023-04-09T09:49:03;9.40;97.50
37204;DHT22;23098;48.054;10.636;2023-04-09T09:51:30;10.20;98.60
37204;DHT22;23098;48.054;10.636;2023-04-09T09:53:57;9.90;97.10
37204;DHT22;23098;48.054;10.636;2023-04-09T09:56:37;9.90;97.60
37204;DHT22;23098;48.054;10.636;2023-04-09T09:59:14;9.50;97.40
37204;DHT22;23098;48.054;10.636;2023-04-09T10:01:41;9.30;97.40
37204;DHT22;23098;48.054;10.636;2023-04-09T10:04:08;9.40;98.00
37204;DHT22;23098;48.054;10.636;2023-04-09T10:06:42;9.10;98.10
37204;DHT22;23098;48.054;10.636;2023-04-09T10:09:08;8.90;98.30
37204;DHT22;23098;48.054;10.636;2023-04-09T10:11:35;8.70;98.90
37204;DHT22;23098;48.054;10.636;2023-04-09T10:14:01;8.30;98.10
37204;DHT22;23098;48.054;10.636;2023-04-09T10:16:27;8.80;98.20
37204;DHT22;23098;48.054;10.636;2023-04-09T10:18:55;9.80;99.40
37204;DHT22;23098;48.054;10.636;2023-04-09T10:23:59;10.00;97.30
37204;DHT22;23098;48.054;10.636;2023-04-09T10:26:32;9.40;97.10
37204;DHT22;23098;48.054;10.636;2023-04-09T10:29:03;9.90;97.90
37204;DHT22;23098;48.054;10.636;2023-04-09T10:31:51;9.90;96.20
37204;DHT22;23098;48.054;10.636;2023-04-09T10:34:19;9.80;96.60
37204;DHT22;23098;48.054;10.636;2023-04-09T10:36:49;10.40;97.50
37204;DHT22;23098;48.054;10.636;2023-04-09T10:39:17;9.90;96.30
37204;DHT22;23098;48.054;10.636;2023-04-09T10:41:43;10.20;95.80
37204;DHT22;23098;48.054;10.636;2023-04-09T10:44:37;10.60;97.50
37204;DHT22;23098;48.054;10.636;2023-04-09T10:47:29;11.00;95.40
37204;DHT22;23098;48.054;10.636;2023-04-09T10:49:57;10.40;95.10
37204;DHT22;23098;48.054;10.636;2023-04-09T10:52:28;10.50;95.40
37204;DHT22;23098;48.054;10.636;2023-04-09T10:54:54;10.90;94.80
37204;DHT22;23098;48.054;10.636;2023-04-09T11:12:48;11.10;94.50
37204;DHT22;23098;48.054;10.636;2023-04-09T11:15:18;11.90;94.10
37204;DHT22;23098;48.054;10.636;2023-04-09T11:17:45;11.40;93.70
37204;DHT22;23098;48.054;10.636;2023-04-09T11:20:12;11.10;93.60
37204;DHT22;23098;48.054;10.636;2023-04-09T11:22:40;10.90;93.90
37204;DHT22;23098;48.054;10.636;2023-04-09T11:25:05;10.50;94.50
37204;DHT22;23098;48.054;10.636;2023-04-09T11:27:37;10.20;94.40
37204;DHT22;23098;48.054;10.636;2023-04-09T11:30:04;9.70;93.80
37204;DHT22;23098;48.054;10.636;2023-04-09T11:32:30;9.90;94.20
37204;DHT22;23098;48.054;10.636;2023-04-09T11:34:56;9.90;93.10
37204;DHT22;23098;48.054;10.636;2023-04-09T11:37:22;10.00;94.90
37204;DHT22;23098;48.054;10.636;2023-04-09T11:39:48;9.70;93.80
37204;DHT22;23098;48.054;10.636;2023-04-09T11:42:16;9.80;94.60
37204;DHT22;23098;48.054;10.636;2023-04-09T11:44:48;10.10;94.90
37204;DHT22;23098;48.054;10.636;2023-04-09T11:47:14;10.50;94.10
37204;DHT22;23098;48.054;10.636;2023-04-09T11:49:43;10.50;94.10
37204;DHT22;23098;48.054;10.636;2023-04-09T11:52:11;10.40;93.70
37204;DHT22;23098;48.054;10.636;2023-04-09T11:54:36;10.30;93.70
37204;DHT22;23098;48.054;10.636;2023-04-09T11:59:39;10.10;95.00
37204;DHT22;23098;48.054;10.636;2023-04-09T12:02:05;10.90;94.90
37204;DHT22;23098;48.054;10.636;2023-04-09T12:04:32;10.70;95.10
37204;DHT22;23098;48.054;10.636;2023-04-09T12:06:57;10.40;95.60
37204;DHT22;23098;48.054;10.636;2023-04-09T12:09:23;10.40;95.70
37204;DHT22;23098;48.054;10.636;2023-04-09T12:11:49;10.50;95.40
37204;DHT22;23098;48.054;10.636;2023-04-09T12:14:17;10.20;94.80
37204;DHT22;23098;48.054;10.636;2023-04-09T12:16:44;10.10;95.20
37204;DHT22;23098;48.054;10.636;2023-04-09T12:19:11;10.10;94.90
37204;DHT22;23098;48.054;10.636;2023-04-09T12:21:54;10.40;95.50
37204;DHT22;23098;48.054;10.636;2023-04-09T12:24:22;10.50;95.20
37204;DHT22;23098;48.054;10.636;2023-04-09T12:26:49;10.70;94.50
37204;DHT22;23098;48.054;10.636;2023-04-09T12:29:19;10.50;94.30
37204;DHT22;23098;48.054;10.636;2023-04-09T12:31:46;10.40;94.50
37204;DHT22;23098;48.054;10.636;2023-04-09T12:34:12;10.60;95.10
37204;DHT22;23098;48.054;10.636;2023-04-09T12:37:08;10.70;95.10
37204;DHT22;23098;48.054;10.636;2023-04-09T12:39:37;10.60;94.40
37204;DHT22;23098;48.054;10.636;2023-04-09T12:42:03;10.40;94.50
37204;DHT22;23098;48.054;10.636;2023-04-09T12:44:28;10.40;94.80
37204;DHT22;23098;48.054;10.636;2023-04-09T12:46:54;10.50;94.10
37204;DHT22;23098;48.054;10.636;2023-04-09T12:49:19;10.40;93.50
37204;DHT22;23098;48.054;10.636;2023-04-09T12:54:21;10.00;93.60
37204;DHT22;23098;48.054;10.636;2023-04-09T12:56:46;10.30;94.60
37204;DHT22;23098;48.054;10.636;2023-04-09T12:59:14;10.40;93.90
37204;DHT22;23098;48.054;10.636;2023-04-09T13:01:39;10.50;94.00
37204;DHT22;23098;48.054;10.636;2023-04-09T13:04:05;10.40;94.20
37204;DHT22;23098;48.054;10.636;2023-04-09T13:06:30;10.30;94.50
37204;DHT22;23098;48.054;10.636;2023-04-09T13:08:56;10.40;93.20
37204;DHT22;23098;48.054;10.636;2023-04-09T13:11:21;10.40;93.80
37204;DHT22;23098;48.054;10.636;2023-04-09T13:13:47;10.40;92.20
37204;DHT22;23098;48.054;10.636;2023-04-09T13:16:12;10.60;92.50
37204;DHT22;23098;48.054;10.636;2023-04-09T13:18:38;10.70;92.30
37204;DHT22;23098;48.054;10.636;2023-04-09T13:21:04;10.60;92.00
37204;DHT22;23098;48.054;10.636;2023-04-09T13:23:29;10.60;92.40
37204;DHT22;23098;48.054;10.636;2023-04-09T13:25:55;10.40;92.30
37204;DHT22;23098;48.054;10.636;2023-04-09T13:28:20;10.20;92.30
37204;DHT22;23098;48.054;10.636;2023-04-09T13:30:46;10.60;92.70
37204;DHT22;23098;48.054;10.636;2023-04-09T13:33:12;10.80;92.30
37204;DHT22;23098;48.054;10.636;2023-04-09T13:35:37;10.50;92.50
37204;DHT22;23098;48.054;10.636;2023-04-09T13:38:03;10.60;93.30
37204;DHT22;23098;48.054;10.636;2023-04-09T13:40:29;10.60;93.20
37204;DHT22;23098;48.054;10.636;2023-04-09T13:42:54;10.70;92.80
37204;DHT22;23098;48.054;10.636;2023-04-09T13:45:20;10.60;93.30
37204;DHT22;23098;48.054;10.636;2023-04-09T13:47:48;10.60;92.90
37204;DHT22;23098;48.054;10.636;2023-04-09T13:50:13;10.90;92.80
37204;DHT22;23098;48.054;10.636;2023-04-09T13:52:40;11.00;93.00
37204;DHT22;23098;48.054;10.636;2023-04-09T13:55:06;11.00;92.30
37204;DHT22;23098;48.054;10.636;2023-04-09T13:57:31;11.30;92.50
37204;DHT22;23098;48.054;10.636;2023-04-09T13:59:57;11.80;92.40
37204;DHT22;23098;48.054;10.636;2023-04-09T14:02:26;12.00;92.00
37204;DHT22;23098;48.054;10.636;2023-04-09T14:04:52;12.00;92.00
37204;DHT22;23098;48.054;10.636;2023-04-09T14:07:18;11.60;91.90
37204;DHT22;23098;48.054;10.636;2023-04-09T14:09:44;11.40;92.40
37204;DHT22;23098;48.054;10.636;2023-04-09T14:12:09;12.10;93.00
37204;DHT22;23098;48.054;10.636;2023-04-09T14:14:35;11.50;92.30
37204;DHT22;23098;48.054;10.636;2023-04-09T14:17:01;11.00;92.50
37204;DHT22;23098;48.054;10.636;2023-04-09T14:19:26;11.10;93.30
37204;DHT22;23098;48.054;10.636;2023-04-09T14:21:53;11.30;93.40
37204;DHT22;23098;48.054;10.636;2023-04-09T14:24:19;11.30;92.80
37204;DHT22;23098;48.054;10.636;2023-04-09T14:26:47;11.30;92.60
37204;DHT22;23098;48.054;10.636;2023-04-09T14:29:13;11.50;92.90
37204;DHT22;23098;48.054;10.636;2023-04-09T14:31:38;11.30;92.70
37204;DHT22;23098;48.054;10.636;2023-04-09T14:34:06;11.70;92.10
37204;DHT22;23098;48.054;10.636;2023-04-09T14:36:31;11.60;91.60
37204;DHT22;23098;48.054;10.636;2023-04-09T14:38:57;11.60;91.80
37204;DHT22;23098;48.054;10.636;2023-04-09T14:41:22;11.50;92.30
37204;DHT22;23098;48.054;10.636;2023-04-09T14:43:48;11.60;92.80
37204;DHT22;23098;48.054;10.636;2023-04-09T14:46:13;11.30;92.80
37204;DHT22;23098;48.054;10.636;2023-04-09T14:48:39;11.30;93.40
37204;DHT22;23098;48.054;10.636;2023-04-09T14:51:05;10.50;93.70
37204;DHT22;23098;48.054;10.636;2023-04-09T14:53:31;10.70;94.20
37204;DHT22;23098;48.054;10.636;2023-04-09T14:55:56;11.00;92.90
37204;DHT22;23098;48.054;10.636;2023-04-09T14:58:22;11.00;93.10
37204;DHT22;23098;48.054;10.636;2023-04-09T15:00:47;10.80;92.80
37204;DHT22;23098;48.054;10.636;2023-04-09T15:03:13;10.40;93.20
37204;DHT22;23098;48.054;10.636;2023-04-09T15:05:38;10.50;93.90
37204;DHT22;23098;48.054;10.636;2023-04-09T15:08:04;10.70;94.20
37204;DHT22;23098;48.054;10.636;2023-04-09T15:10:29;10.80;93.50
37204;DHT22;23098;48.054;10.636;2023-04-09T15:12:55;11.10;94.20
37204;DHT22;23098;48.054;10.636;2023-04-09T15:15:20;10.90;93.40
37204;DHT22;23098;48.054;10.636;2023-04-09T15:17:46;10.30;93.60
37204;DHT22;23098;48.054;10.636;2023-04-09T15:20:12;10.30;93.40
37204;DHT22;23098;48.054;10.636;2023-04-09T15:22:38;10.70;93.50
37204;DHT22;23098;48.054;10.636;2023-04-09T15:25:04;11.00;93.50
37204;DHT22;23098;48.054;10.636;2023-04-09T15:27:30;11.10;93.30
37204;DHT22;23098;48.054;10.636;2023-04-09T15:29:55;11.00;92.80
37204;DHT22;23098;48.054;10.636;2023-04-09T15:32:21;11.30;92.40
37204;DHT22;23098;48.054;10.636;2023-04-09T15:34:46;11.10;92.60
37204;DHT22;23098;48.054;10.636;2023-04-09T15:37:12;11.10;92.90
37204;DHT22;23098;48.054;10.636;2023-04-09T15:39:37;11.30;92.50
37204;DHT22;23098;48.054;10.636;2023-04-09T15:42:03;11.00;92.70
37204;DHT22;23098;48.054;10.636;2023-04-09T15:44:29;11.00;92.10
37204;DHT22;23098;48.054;10.636;2023-04-09T15:46:54;11.10;92.60
37204;DHT22;23098;48.054;10.636;2023-04-09T15:49:20;11.10;92.90
37204;DHT22;23098;48.054;10.636;2023-04-09T15:51:46;11.00;93.20
37204;DHT22;23098;48.054;10.636;2023-04-09T15:54:12;10.70;93.20
37204;DHT22;23098;48.054;10.636;2023-04-09T15:56:37;10.70;93.80
37204;DHT22;23098;48.054;10.636;2023-04-09T15:59:05;10.40;93.50
37204;DHT22;23098;48.054;10.636;2023-04-09T16:01:32;10.50;94.30
37204;DHT22;23098;48.054;10.636;2023-04-09T16:03:59;10.40;94.20
37204;DHT22;23098;48.054;10.636;2023-04-09T16:06:24;10.40;94.30
37204;DHT22;23098;48.054;10.636;2023-04-09T16:08:50;10.30;94.10
37204;DHT22;23098;48.054;10.636;2023-04-09T16:11:15;10.40;95.00
37204;DHT22;23098;48.054;10.636;2023-04-09T16:13:41;10.40;94.60
37204;DHT22;23098;48.054;10.636;2023-04-09T16:16:07;10.40;93.80
37204;DHT22;23098;48.054;10.636;2023-04-09T16:18:33;10.40;94.30
37204;DHT22;23098;48.054;10.636;2023-04-09T16:20:59;10.30;94.50
37204;DHT22;23098;48.054;10.636;2023-04-09T16:23:25;10.10;93.90
37204;DHT22;23098;48.054;10.636;2023-04-09T16:25:51;10.20;94.60
37204;DHT22;23098;48.054;10.636;2023-04-09T16:28:18;9.90;94.50
37204;DHT22;23098;48.054;10.636;2023-04-09T16:30:45;10.00;94.70
37204;DHT22;23098;48.054;10.636;2023-04-09T16:33:11;10.10;95.40
37204;DHT22;23098;48.054;10.636;2023-04-09T16:35:37;10.10;95.10
37204;DHT22;23098;48.054;10.636;2023-04-09T16:38:06;9.90;95.20
37204;DHT22;23098;48.054;10.636;2023-04-09T16:40:31;9.80;95.60
37204;DHT22;23098;48.054;10.636;2023-04-09T16:42:57;9.80;95.70
37204;DHT22;23098;48.054;10.636;2023-04-09T16:45:22;9.90;95.40
37204;DHT22;23098;48.054;10.636;2023-04-09T16:47:50;9.70;95.10
37204;DHT22;23098;48.054;10.636;2023-04-09T16:50:16;9.60;94.90
37204;DHT22;23098;48.054;10.636;2023-04-09T16:52:42;9.60;95.20
37204;DHT22;23098;48.054;10.636;2023-04-09T16:55:08;9.50;94.70
37204;DHT22;23098;48.054;10.636;2023-04-09T16:57:34;9.50;94.90
37204;DHT22;23098;48.054;10.636;2023-04-09T17:00:00;9.60;95.10
37204;DHT22;23098;48.054;10.636;2023-04-09T17:02:27;9.40;94.90
37204;DHT22;23098;48.054;10.636;2023-04-09T17:04:53;9.50;95.20
37204;DHT22;23098;48.054;10.636;2023-04-09T17:07:19;9.50;95.30
37204;DHT22;23098;48.054;10.636;2023-04-09T17:09:44;9.50;95.10
37204;DHT22;23098;48.054;10.636;2023-04-09T17:12:10;9.40;95.10
37204;DHT22;23098;48.054;10.636;2023-04-09T17:14:35;9.30;94.70
37204;DHT22;23098;48.054;10.636;2023-04-09T17:17:03;9.30;95.00
37204;DHT22;23098;48.054;10.636;2023-04-09T17:19:29;9.30;95.10
37204;DHT22;23098;48.054;10.636;2023-04-09T17:21:55;9.20;95.50
37204;DHT22;23098;48.054;10.636;2023-04-09T17:24:21;9.10;95.90
37204;DHT22;23098;48.054;10.636;2023-04-09T17:26:47;9.10;95.90
37204;DHT22;23098;48.054;10.636;2023-04-09T17:29:12;8.90;95.70
37204;DHT22;23098;48.054;10.636;2023-04-09T17:31:38;8.80;96.10
37204;DHT22;23098;48.054;10.636;2023-04-09T17:34:03;8.70;96.00
37204;DHT22;23098;48.054;10.636;2023-04-09T17:36:29;8.60;96.30
37204;DHT22;23098;48.054;10.636;2023-04-09T17:38:56;8.60;96.20
37204;DHT22;23098;48.054;10.636;2023-04-09T17:41:21;8.50;96.70
37204;DHT22;23098;48.054;10.636;2023-04-09T17:43:47;8.40;96.80
37204;DHT22;23098;48.054;10.636;2023-04-09T17:46:13;8.30;97.00
37204;DHT22;23098;48.054;10.636;2023-04-09T17:48:39;8.20;97.10
37204;DHT22;23098;48.054;10.636;2023-04-09T17:51:06;8.10;97.50
37204;DHT22;23098;48.054;10.636;2023-04-09T17:53:31;8.00;97.50
37204;DHT22;23098;48.054;10.636;2023-04-09T17:55:58;8.00;97.70
37204;DHT22;23098;48.054;10.636;2023-04-09T17:58:24;7.80;98.10
37204;DHT22;23098;48.054;10.636;2023-04-09T18:00:50;7.80;97.90
37204;DHT22;23098;48.054;10.636;2023-04-09T18:03:17;7.80;98.30
37204;DHT22;23098;48.054;10.636;2023-04-09T18:05:43;7.70;98.30
37204;DHT22;23098;48.054;10.636;2023-04-09T18:08:08;7.60;98.50
37204;DHT22;23098;48.054;10.636;2023-04-09T18:10:34;7.50;98.70
37204;DHT22;23098;48.054;10.636;2023-04-09T18:12:59;7.40;99.00
37204;DHT22;23098;48.054;10.636;2023-04-09T18:15:25;7.30;99.10
37204;DHT22;23098;48.054;10.636;2023-04-09T18:17:50;7.30;99.30
37204;DHT22;23098;48.054;10.636;2023-04-09T18:20:16;7.20;99.30
37204;DHT22;23098;48.054;10.636;2023-04-09T18:22:42;7.20;99.40
37204;DHT22;23098;48.054;10.636;2023-04-09T18:25:08;7.20;99.30
37204;DHT22;23098;48.054;10.636;2023-04-09T18:27:34;7.10;99.40
37204;DHT22;23098;48.054;10.636;2023-04-09T18:29:59;7.10;99.50
37204;DHT22;23098;48.054;10.636;2023-04-09T18:32:25;7.10;99.60
37204;DHT22;23098;48.054;10.636;2023-04-09T18:34:51;7.00;99.70
37204;DHT22;23098;48.054;10.636;2023-04-09T18:37:18;6.90;99.70
37204;DHT22;23098;48.054;10.636;2023-04-09T18:39:44;6.80;99.60
37204;DHT22;23098;48.054;10.636;2023-04-09T18:42:10;6.80;99.60
37204;DHT22;23098;48.054;10.636;2023-04-09T18:44:36;6.80;99.70
37204;DHT22;23098;48.054;10.636;2023-04-09T18:47:05;6.70;99.70
37204;DHT22;23098;48.054;10.636;2023-04-09T18:49:33;6.70;99.70
37204;DHT22;23098;48.054;10.636;2023-04-09T18:51:59;6.70;99.80
37204;DHT22;23098;48.054;10.636;2023-04-09T18:54:25;6.70;99.90
37204;DHT22;23098;48.054;10.636;2023-04-09T18:56:50;6.60;99.90
37204;DHT22;23098;48.054;10.636;2023-04-09T18:59:16;6.60;99.90
37204;DHT22;23098;48.054;10.636;2023-04-09T19:01:42;6.50;99.90
37204;DHT22;23098;48.054;10.636;2023-04-09T19:04:07;6.50;99.90
37204;DHT22;23098;48.054;10.636;2023-04-09T19:06:34;6.40;99.90
37204;DHT22;23098;48.054;10.636;2023-04-09T19:09:00;6.40;99.90
37204;DHT22;23098;48.054;10.636;2023-04-09T19:11:26;6.40;99.90
37204;DHT22;23098;48.054;10.636;2023-04-09T19:13:52;6.30;99.90
37204;DHT22;23098;48.054;10.636;2023-04-09T19:16:18;6.30;99.90
37204;DHT22;23098;48.054;10.636;2023-04-09T19:18:46;6.30;99.90
37204;DHT22;23098;48.054;10.636;2023-04-09T19:21:11;6.10;99.90
37204;DHT22;23098;48.054;10.636;2023-04-09T19:23:37;6.00;99.90
37204;DHT22;23098;48.054;10.636;2023-04-09T19:26:03;6.00;99.90
37204;DHT22;23098;48.054;10.636;2023-04-09T19:28:29;5.90;99.90
37204;DHT22;23098;48.054;10.636;2023-04-09T19:30:55;5.90;99.90
37204;DHT22;23098;48.054;10.636;2023-04-09T19:33:24;6.00;99.90
37204;DHT22;23098;48.054;10.636;2023-04-09T19:35:51;5.90;99.90
37204;DHT22;23098;48.054;10.636;2023-04-09T19:38:17;5.80;99.90
37204;DHT22;23098;48.054;10.636;2023-04-09T19:40:43;5.70;99.90
37204;DHT22;23098;48.054;10.636;2023-04-09T19:43:09;5.60;99.90
37204;DHT22;23098;48.054;10.636;2023-04-09T19:45:36;5.60;99.90
37204;DHT22;23098;48.054;10.636;2023-04-09T19:48:03;5.60;99.90
37204;DHT22;23098;48.054;10.636;2023-04-09T19:50:32;5.60;99.90
37204;DHT22;23098;48.054;10.636;2023-04-09T19:52:58;5.60;99.90
37204;DHT22;23098;48.054;10.636;2023-04-09T19:55:23;5.60;99.90
37204;DHT22;23098;48.054;10.636;2023-04-09T19:57:49;5.60;99.90
37204;DHT22;23098;48.054;10.636;2023-04-09T20:00:15;5.60;99.90
37204;DHT22;23098;48.054;10.636;2023-04-09T20:02:40;5.60;99.90
37204;DHT22;23098;48.054;10.636;2023-04-09T20:05:07;5.60;99.90
37204;DHT22;23098;48.054;10.636;2023-04-09T20:07:32;5.60;99.90
37204;DHT22;23098;48.054;10.636;2023-04-09T20:09:58;5.60;99.90
37204;DHT22;23098;48.054;10.636;2023-04-09T20:12:24;5.60;99.90
37204;DHT22;23098;48.054;10.636;2023-04-09T20:14:56;5.50;99.90
37204;DHT22;23098;48.054;10.636;2023-04-09T20:17:22;5.50;99.90
37204;DHT22;23098;48.054;10.636;2023-04-09T20:19:47;5.40;99.90
37204;DHT22;23098;48.054;10.636;2023-04-09T20:22:14;5.40;99.90
37204;DHT22;23098;48.054;10.636;2023-04-09T20:24:40;5.30;99.90
37204;DHT22;23098;48.054;10.636;2023-04-09T20:27:05;5.30;99.90
37204;DHT22;23098;48.054;10.636;2023-04-09T20:29:31;5.20;99.90
37204;DHT22;23098;48.054;10.636;2023-04-09T20:31:57;5.20;99.90
37204;DHT22;23098;48.054;10.636;2023-04-09T20:34:23;5.10;99.90
37204;DHT22;23098;48.054;10.636;2023-04-09T20:36:54;5.00;99.90
37204;DHT22;23098;48.054;10.636;2023-04-09T20:39:20;4.90;99.90
37204;DHT22;23098;48.054;10.636;2023-04-09T20:41:47;4.70;99.90
37204;DHT22;23098;48.054;10.636;2023-04-09T20:44:12;4.60;99.90
37204;DHT22;23098;48.054;10.636;2023-04-09T20:46:38;4.50;99.90
37204;DHT22;23098;48.054;10.636;2023-04-09T20:49:03;4.40;99.90
37204;DHT22;23098;48.054;10.636;2023-04-09T20:51:29;4.40;99.90
37204;DHT22;23098;48.054;10.636;2023-04-09T20:53:56;4.30;99.90
37204;DHT22;23098;48.054;10.636;2023-04-09T20:56:22;4.40;99.90
37204;DHT22;23098;48.054;10.636;2023-04-09T20:58:48;4.30;99.90
37204;DHT22;23098;48.054;10.636;2023-04-09T21:01:13;4.30;99.90
37204;DHT22;23098;48.054;10.636;2023-04-09T21:03:40;4.20;99.90
37204;DHT22;23098;48.054;10.636;2023-04-09T21:06:06;4.20;99.90
37204;DHT22;23098;48.054;10.636;2023-04-09T21:08:32;4.20;99.90
37204;DHT22;23098;48.054;10.636;2023-04-09T21:10:58;4.20;99.90
37204;DHT22;23098;48.054;10.636;2023-04-09T21:13:24;4.20;99.90
37204;DHT22;23098;48.054;10.636;2023-04-09T21:15:50;4.20;99.90
37204;DHT22;23098;48.054;10.636;2023-04-09T21:18:16;4.20;99.90
37204;DHT22;23098;48.054;10.636;2023-04-09T21:20:45;4.10;99.90
37204;DHT22;23098;48.054;10.636;2023-04-09T21:23:11;4.10;99.90
37204;DHT22;23098;48.054;10.636;2023-04-09T21:25:37;4.00;99.90
37204;DHT22;23098;48.054;10.636;2023-04-09T21:28:02;4.10;99.90
37204;DHT22;23098;48.054;10.636;2023-04-09T21:30:28;4.00;99.90
37204;DHT22;23098;48.054;10.636;2023-04-09T21:32:54;4.00;99.90
37204;DHT22;23098;48.054;10.636;2023-04-09T21:35:20;3.90;99.90
37204;DHT22;23098;48.054;10.636;2023-04-09T21:37:45;3.90;99.90
37204;DHT22;23098;48.054;10.636;2023-04-09T21:40:12;3.80;99.90
37204;DHT22;23098;48.054;10.636;2023-04-09T21:42:38;3.60;99.90
37204;DHT22;23098;48.054;10.636;2023-04-09T21:45:03;3.50;99.90
37204;DHT22;23098;48.054;10.636;2023-04-09T21:47:29;3.30;99.90
37204;DHT22;23098;48.054;10.636;2023-04-09T21:50:11;3.20;99.90
37204;DHT22;23098;48.054;10.636;2023-04-09T21:52:38;3.10;99.90
37204;DHT22;23098;48.054;10.636;2023-04-09T21:55:03;3.00;99.90
37204;DHT22;23098;48.054;10.636;2023-04-09T21:57:29;2.90;99.90
37204;DHT22;23098;48.054;10.636;2023-04-09T21:59:55;2.80;99.90
37204;DHT22;23098;48.054;10.636;2023-04-09T22:02:20;2.80;99.90
37204;DHT22;23098;48.054;10.636;2023-04-09T22:04:46;2.80;99.90
37204;DHT22;23098;48.054;10.636;2023-04-09T22:07:11;2.80;99.90
37204;DHT22;23098;48.054;10.636;2023-04-09T22:09:37;2.80;99.90
37204;DHT22;23098;48.054;10.636;2023-04-09T22:12:03;2.80;99.90
37204;DHT22;23098;48.054;10.636;2023-04-09T22:14:29;2.80;99.90
37204;DHT22;23098;48.054;10.636;2023-04-09T22:16:58;2.70;99.90
37204;DHT22;23098;48.054;10.636;2023-04-09T22:19:30;2.70;99.90